Time;durP1;ratioP1;P1;durP2;ratioP2;P2;SDS_P1;SDS_P2;PMS_P1;PMS_P2;Temp;Humidity;BMP_temperature;BMP_pressure;BME280_temperature;BME280_humidity;BME280_pressure;Samples;Min_cycle;Max_cycle;Signal;HPM_P1;HPM_P2
2022/08/03 00:01:18;;;;;;;3.33;2.50;;;;;;;21.06;70.92;100017.59;5067278;28;20510;-81
2022/08/03 00:03:43;;;;;;;4.00;2.60;;;;;;;21.01;72.71;100021.19;5070635;28;20033;-81
2022/08/03 00:06:09;;;;;;;5.38;2.72;;;;;;;20.92;73.31;100024.22;5072365;28;20040;-81
2022/08/03 00:08:34;;;;;;;3.10;2.80;;;;;;;20.71;75.35;100020.03;5069929;28;20051;-81
2022/08/03 00:11:00;;;;;;;4.07;3.10;;;;;;;20.60;76.68;100014.38;5069596;28;20120;-81
2022/08/03 00:13:26;;;;;;;3.15;2.80;;;;;;;20.55;76.59;100017.94;5072555;28;20044;-81
2022/08/03 00:15:52;;;;;;;3.10;2.70;;;;;;;20.42;76.41;100027.63;5072364;28;20540;-81
2022/08/03 00:18:18;;;;;;;3.03;2.72;;;;;;;20.39;76.31;100025.81;5071413;28;20119;-81
2022/08/03 00:20:43;;;;;;;5.05;3.00;;;;;;;20.31;76.96;100021.16;5069519;28;20124;-81
2022/08/03 00:23:09;;;;;;;5.57;2.90;;;;;;;20.21;77.03;100012.13;5070910;28;20048;-81
2022/08/03 00:25:35;;;;;;;5.85;2.90;;;;;;;20.23;76.72;100018.03;5071435;28;20040;-81
2022/08/03 00:28:02;;;;;;;4.07;2.85;;;;;;;20.20;77.41;100021.84;5072122;28;20400;-81
2022/08/03 00:30:28;;;;;;;3.60;2.85;;;;;;;20.20;76.36;100021.84;5070513;28;20107;-81
2022/08/03 00:32:53;;;;;;;3.30;3.00;;;;;;;20.25;75.88;100018.31;5072132;28;20434;-81
2022/08/03 00:35:19;;;;;;;3.83;2.90;;;;;;;20.20;75.62;100004.97;5068005;28;20546;-81
2022/08/03 00:37:45;;;;;;;5.75;2.80;;;;;;;20.28;75.32;100022.94;5069234;28;20033;-81
2022/08/03 00:40:14;;;;;;;4.30;2.70;;;;;;;20.29;75.56;100016.06;5071595;28;20120;-81
2022/08/03 00:42:57;;;;;;;5.53;2.80;;;;;;;20.29;75.02;100024.50;5063355;28;20083;-81
2022/08/03 00:45:34;;;;;;;4.20;2.70;;;;;;;20.26;75.48;100024.72;5056471;28;20039;-82
2022/08/03 00:48:00;;;;;;;3.42;2.88;;;;;;;20.26;75.61;100025.47;5071814;28;20077;-81
2022/08/03 00:50:27;;;;;;;3.20;2.58;;;;;;;20.23;75.74;100025.69;5072096;28;20072;-82
2022/08/03 00:52:55;;;;;;;3.50;2.63;;;;;;;20.22;75.57;100024.94;5070172;28;20035;-81
2022/08/03 00:55:21;;;;;;;3.10;2.78;;;;;;;20.19;75.85;100020.31;5070089;28;20068;-81
2022/08/03 00:57:46;;;;;;;4.00;2.90;;;;;;;20.20;76.44;100021.84;5068908;28;20254;-82
2022/08/03 01:00:17;;;;;;;4.05;2.85;;;;;;;20.14;76.58;100023.84;5069105;28;20040;-82
2022/08/03 01:02:42;;;;;;;5.25;2.78;;;;;;;20.08;76.94;100025.88;5066075;28;20045;-80
2022/08/03 01:05:09;;;;;;;4.32;3.13;;;;;;;20.07;77.59;100029.97;5072425;28;20380;-80
2022/08/03 01:07:44;;;;;;;4.15;3.15;;;;;;;20.10;76.85;100031.03;5072431;28;20119;-80
2022/08/03 01:10:28;;;;;;;5.22;2.88;;;;;;;20.11;77.46;100024.88;5054017;28;20052;-80
2022/08/03 01:12:58;;;;;;;5.82;3.35;;;;;;;20.10;77.13;100033.84;5070337;28;20040;-80
2022/08/03 01:15:36;;;;;;;3.67;3.20;;;;;;;20.06;77.56;100028.41;5068721;28;20163;-82
2022/08/03 01:18:11;;;;;;;4.78;3.38;;;;;;;20.08;77.91;100022.28;5060391;28;20044;-82
2022/08/03 01:20:39;;;;;;;4.88;3.10;;;;;;;20.09;77.86;100018.22;5070884;28;20048;-82
2022/08/03 01:23:27;;;;;;;3.83;3.00;;;;;;;20.16;77.55;100021.31;5066622;28;20123;-80
2022/08/03 01:26:09;;;;;;;3.50;3.20;;;;;;;20.12;77.83;100014.38;5071240;28;20051;-80
2022/08/03 01:28:57;;;;;;;3.40;3.10;;;;;;;20.15;78.59;100019.78;5059205;28;20037;-81
2022/08/03 01:31:29;;;;;;;4.40;3.33;;;;;;;20.21;78.27;100023.41;5068405;28;20040;-80
2022/08/03 01:34:02;;;;;;;4.18;2.97;;;;;;;20.21;78.25;100017.78;5048876;28;20495;-80
2022/08/03 01:36:38;;;;;;;;;;;;;;;20.24;78.46;100005.50;5071855;28;20043;-80
2022/08/03 01:39:10;;;;;;;4.45;3.40;;;;;;;20.22;78.22;100010.09;5057184;28;19935;-80
2022/08/03 01:41:48;;;;;;;4.13;3.35;;;;;;;20.28;77.99;100014.47;5064483;28;20131;-80
2022/08/03 01:44:15;;;;;;;3.85;3.20;;;;;;;20.28;77.73;100011.66;5070206;28;20058;-80
2022/08/03 01:46:42;;;;;;;4.85;3.17;;;;;;;20.27;77.78;100018.56;5069920;28;20520;-80
2022/08/03 01:49:10;;;;;;;4.38;3.15;;;;;;;20.27;77.58;100018.56;5045245;28;20047;-81
2022/08/03 01:51:39;;;;;;;3.60;3.10;;;;;;;20.18;78.44;100018.75;5071638;28;20040;-80
2022/08/03 01:54:07;;;;;;;3.90;3.25;;;;;;;20.03;79.43;100012.53;5059882;28;20031;-80
2022/08/03 01:56:34;;;;;;;4.60;3.13;;;;;;;19.99;79.38;100020.44;5051677;28;20072;-80
2022/08/03 01:59:01;;;;;;;4.35;3.10;;;;;;;19.83;79.90;100004.22;5050365;28;20033;-80
2022/08/03 02:01:28;;;;;;;3.55;3.10;;;;;;;19.76;80.47;100011.09;5053719;28;20049;-80
2022/08/03 02:03:56;;;;;;;3.70;3.17;;;;;;;19.60;81.62;100010.97;5053251;28;20500;-80
2022/08/03 02:06:22;;;;;;;3.92;2.85;;;;;;;19.37;82.56;99995.91;5053842;28;20048;-80
2022/08/03 02:08:50;;;;;;;4.68;3.10;;;;;;;19.31;82.93;100011.97;5070231;28;20072;-80
2022/08/03 02:11:16;;;;;;;4.50;3.20;;;;;;;19.18;83.69;100005.94;5060439;28;20036;-80
2022/08/03 02:13:44;;;;;;;4.22;3.05;;;;;;;19.07;84.39;100006.63;5067734;28;20041;-80
2022/08/03 02:16:13;;;;;;;4.30;3.35;;;;;;;19.04;84.70;100018.88;5071505;28;20085;-80
2022/08/03 02:18:40;;;;;;;3.83;3.53;;;;;;;18.94;85.82;100017.47;5056378;28;20044;-81
2022/08/03 02:21:09;;;;;;;3.70;3.00;;;;;;;18.84;86.18;100005.63;5058611;28;20040;-81
2022/08/03 02:23:36;;;;;;;4.18;2.90;;;;;;;18.87;85.55;100012.28;5062248;28;20135;-80
2022/08/03 02:26:06;;;;;;;3.97;3.30;;;;;;;18.87;85.28;100009.47;5063543;28;20094;-80
2022/08/03 02:28:35;;;;;;;4.30;3.05;;;;;;;18.79;85.73;100008.38;5069940;28;20549;-80
2022/08/03 02:31:04;;;;;;;3.53;3.03;;;;;;;18.78;85.29;100007.59;5068961;28;20530;-81
2022/08/03 02:33:38;;;;;;;4.80;3.80;;;;;;;18.74;85.39;99998.63;5057755;28;20045;-81
2022/08/03 02:36:04;;;;;;;;;;;;;;;18.76;85.83;100010.16;5063900;28;20153;-80
2022/08/03 02:38:33;;;;;;;4.03;3.60;;;;;;;18.60;87.09;100008.66;5052499;28;19938;-81
2022/08/03 02:41:00;;;;;;;4.45;3.40;;;;;;;18.60;86.22;100008.66;5051533;28;20037;-81
2022/08/03 02:43:29;;;;;;;4.20;3.53;;;;;;;18.61;86.02;100004.59;5068750;28;20033;-80
2022/08/03 02:45:55;;;;;;;4.07;3.40;;;;;;;18.45;87.89;100007.94;5067732;28;20488;-81
2022/08/03 02:48:26;;;;;;;5.45;3.50;;;;;;;18.29;90.60;100002.88;5067721;28;20131;-81
2022/08/03 02:50:53;;;;;;;4.30;3.60;;;;;;;18.20;91.50;100008.63;5063608;28;20036;-81
2022/08/03 02:53:21;;;;;;;3.90;3.50;;;;;;;18.13;92.82;100004.22;5057931;28;20040;-81
2022/08/03 02:55:48;;;;;;;4.15;3.75;;;;;;;18.13;92.50;100014.66;5061995;28;20032;-81
2022/08/03 02:58:17;;;;;;;5.78;4.20;;;;;;;18.09;93.04;100009.25;5068716;28;20491;-81
2022/08/03 03:00:44;;;;;;;5.20;3.75;;;;;;;18.04;93.89;100017.59;5064467;28;20507;-81
2022/08/03 03:03:10;;;;;;;4.53;3.92;;;;;;;18.02;94.25;100018.09;5064813;28;20523;-81
2022/08/03 03:05:36;;;;;;;5.53;3.85;;;;;;;18.00;95.22;100014.22;5064937;28;20048;-81
2022/08/03 03:08:03;;;;;;;4.78;3.92;;;;;;;17.95;95.51;99998.09;5068972;28;20036;-81
2022/08/03 03:10:29;;;;;;;4.93;3.97;;;;;;;17.90;95.58;100005.16;5062273;28;20033;-81
2022/08/03 03:12:56;;;;;;;4.07;3.40;;;;;;;17.97;95.31;100009.59;5052615;28;20131;-81
2022/08/03 03:15:23;;;;;;;4.28;3.88;;;;;;;18.01;95.65;100010.16;5068589;28;20538;-81
2022/08/03 03:17:50;;;;;;;4.70;4.03;;;;;;;18.06;95.33;100015.88;5062243;28;20442;-81
2022/08/03 03:20:16;;;;;;;4.32;3.67;;;;;;;18.14;94.53;100016.22;5067752;28;20044;-82
2022/08/03 03:22:42;;;;;;;4.88;4.00;;;;;;;18.28;94.04;100009.00;5023641;28;20399;-82
2022/08/03 03:25:09;;;;;;;5.35;3.83;;;;;;;18.45;94.57;100009.97;5060355;28;20044;-82
2022/08/03 03:27:34;;;;;;;4.22;3.83;;;;;;;18.42;94.76;100003.31;5069810;28;20029;-82
2022/08/03 03:30:01;;;;;;;5.15;3.90;;;;;;;18.35;95.22;100012.19;5061588;28;20392;-82
2022/08/03 03:32:28;;;;;;;5.97;3.97;;;;;;;18.28;96.11;100017.44;5062858;28;20392;-82
2022/08/03 03:34:54;;;;;;;5.13;4.00;;;;;;;18.30;95.30;100012.09;5067993;28;20036;-81
2022/08/03 03:37:19;;;;;;;6.45;3.83;;;;;;;18.35;94.54;100014.97;5032963;28;20489;-81
2022/08/03 03:39:45;;;;;;;4.57;3.80;;;;;;;18.37;93.74;100012.44;5035042;28;20048;-82
2022/08/03 03:42:11;;;;;;;5.45;3.97;;;;;;;18.39;94.94;100021.16;5052898;28;20424;-82
2022/08/03 03:44:36;;;;;;;4.50;4.10;;;;;;;18.43;94.70;100026.56;5048789;28;20416;-81
2022/08/03 03:47:02;;;;;;;7.82;3.90;;;;;;;18.44;93.97;100023.25;5029917;28;20056;-82
2022/08/03 03:49:28;;;;;;;4.35;3.85;;;;;;;18.47;93.51;100021.50;5048114;28;20075;-82
2022/08/03 03:51:54;;;;;;;6.55;3.95;;;;;;;18.46;93.91;100008.72;5048017;28;20116;-83
2022/08/03 03:54:20;;;;;;;8.77;4.45;;;;;;;18.49;95.12;100025.34;5029359;28;20052;-82
2022/08/03 03:56:46;;;;;;;5.68;4.18;;;;;;;18.51;94.56;100022.84;5048415;28;20431;-82
2022/08/03 03:59:11;;;;;;;4.80;3.95;;;;;;;18.50;94.36;100021.28;5030331;28;20044;-82
2022/08/03 04:01:38;;;;;;;8.20;3.88;;;;;;;18.57;93.83;100026.50;5045433;28;20056;-84
2022/08/03 04:12:21;;;;;;;5.35;4.20;;;;;;;18.63;93.74;100035.78;5034987;28;20060;-82
2022/08/03 04:14:47;;;;;;;5.20;3.70;;;;;;;18.61;93.08;100043.94;5031989;28;20455;-82
2022/08/03 04:17:14;;;;;;;4.10;3.70;;;;;;;18.61;92.05;100035.50;5023354;28;20294;-82
2022/08/03 04:19:41;;;;;;;4.75;4.00;;;;;;;18.58;92.81;100044.91;5031332;28;20037;-81
2022/08/03 04:22:10;;;;;;;4.47;3.88;;;;;;;18.62;92.59;100050.31;5049418;28;20469;-83
2022/08/03 04:24:59;;;;;;;5.65;3.70;;;;;;;18.67;91.90;100046.03;5031107;28;20037;-81
2022/08/03 04:27:28;;;;;;;4.72;3.83;;;;;;;18.57;92.96;100048.22;5029902;28;20081;-82
2022/08/03 04:29:55;;;;;;;4.65;4.10;;;;;;;18.59;92.39;100054.13;5031377;28;20041;-82
2022/08/03 04:32:24;;;;;;;4.05;3.45;;;;;;;18.67;91.77;100057.28;5048690;28;20041;-84
2022/08/03 04:34:50;;;;;;;4.47;3.60;;;;;;;18.78;90.80;100057.41;5028296;28;20037;-82
2022/08/03 04:37:44;;;;;;;4.53;3.47;;;;;;;18.88;90.42;100053.97;5013901;28;20045;-82
2022/08/03 04:40:14;;;;;;;4.20;3.80;;;;;;;18.97;90.26;100050.22;5032739;28;20049;-82
2022/08/03 04:42:41;;;;;;;6.05;3.65;;;;;;;19.06;92.09;100052.88;5027690;28;20033;-82
2022/08/03 04:45:07;;;;;;;4.22;3.30;;;;;;;19.14;89.22;100056.78;5031514;28;20041;-82
2022/08/03 04:47:33;;;;;;;6.13;3.47;;;;;;;19.29;86.17;100056.69;5043402;28;20155;-82
2022/08/03 04:50:02;;;;;;;3.35;3.05;;;;;;;19.38;84.37;100053.69;5037222;28;20838;-81
2022/08/03 04:52:29;;;;;;;5.97;3.70;;;;;;;19.49;85.50;100060.22;5046189;28;20049;-82
2022/08/03 04:54:54;;;;;;;4.88;3.60;;;;;;;19.54;85.38;100078.44;5071717;28;20074;-86
2022/08/03 04:57:20;;;;;;;5.88;3.95;;;;;;;19.53;85.99;100060.78;5037867;28;20040;-81
2022/08/03 04:59:48;;;;;;;4.82;3.45;;;;;;;19.63;83.58;100069.03;5022892;28;20397;-81
2022/08/03 05:02:14;;;;;;;4.40;3.30;;;;;;;19.74;82.57;100069.13;5040900;28;20160;-83
2022/08/03 05:04:45;;;;;;;4.20;3.33;;;;;;;19.82;82.19;100071.00;5038337;28;20116;-81
2022/08/03 05:07:11;;;;;;;4.32;3.08;;;;;;;19.88;81.87;100062.59;5008129;28;20053;-81
2022/08/03 05:09:37;;;;;;;4.55;3.67;;;;;;;20.02;81.61;100070.13;5040170;28;20033;-82
2022/08/03 05:12:04;;;;;;;3.65;3.28;;;;;;;20.11;80.58;100075.56;5038633;28;20507;-81
2022/08/03 05:14:29;;;;;;;4.20;3.40;;;;;;;20.20;80.17;100061.28;5039621;28;20493;-84
2022/08/03 05:16:55;;;;;;;5.18;3.40;;;;;;;20.31;79.80;100083.91;5038050;28;21114;-81
2022/08/03 05:19:20;;;;;;;4.18;3.20;;;;;;;20.38;79.19;100083.44;5047089;28;20516;-81
2022/08/03 05:21:46;;;;;;;3.65;3.25;;;;;;;20.48;78.24;100075.56;5050678;28;20041;-81
2022/08/03 05:24:11;;;;;;;3.58;3.28;;;;;;;20.61;77.67;100080.75;5050687;28;20087;-81
2022/08/03 05:26:36;;;;;;;4.63;2.88;;;;;;;20.72;76.54;100077.97;5052572;28;20515;-82
2022/08/03 05:29:02;;;;;;;4.72;3.10;;;;;;;20.90;75.35;100083.19;5052045;28;20041;-81
2022/08/03 05:31:28;;;;;;;4.47;3.30;;;;;;;21.12;74.28;100077.63;5052262;28;20485;-82
2022/08/03 05:33:53;;;;;;;3.75;3.05;;;;;;;21.29;72.95;100069.97;5051835;28;20041;-82
2022/08/03 05:36:19;;;;;;;4.13;2.85;;;;;;;21.48;72.24;100086.41;5052186;28;20041;-84
2022/08/03 05:38:44;;;;;;;3.92;3.13;;;;;;;21.52;71.77;100070.78;5034188;28;20055;-82
2022/08/03 05:41:10;;;;;;;3.85;3.10;;;;;;;21.74;71.20;100089.78;5034338;28;20052;-81
2022/08/03 05:43:35;;;;;;;6.53;3.10;;;;;;;22.04;69.54;100082.34;5051974;28;20073;-82
2022/08/03 05:46:01;;;;;;;3.42;2.85;;;;;;;22.29;68.94;100080.50;5034101;28;20547;-81
2022/08/03 05:48:27;;;;;;;3.40;3.00;;;;;;;22.53;67.36;100085.59;5033422;28;20511;-80
2022/08/03 05:50:53;;;;;;;5.15;3.10;;;;;;;22.66;67.58;100085.81;5052047;28;20580;-81
2022/08/03 05:53:18;;;;;;;8.73;3.40;;;;;;;22.90;66.58;100088.81;5034060;28;20041;-81
2022/08/03 05:55:44;;;;;;;5.95;3.40;;;;;;;22.94;65.19;100083.66;5051820;28;20040;-82
2022/08/03 05:58:09;;;;;;;4.32;3.15;;;;;;;22.95;64.49;100081.59;5051388;28;20037;-81
2022/08/03 06:00:35;;;;;;;3.35;2.88;;;;;;;23.01;64.11;100091.59;5049323;28;20069;-81
2022/08/03 06:03:01;;;;;;;4.78;3.03;;;;;;;23.03;63.92;100088.25;5050389;28;20055;-81
2022/08/03 06:05:27;;;;;;;5.47;3.10;;;;;;;23.21;64.89;100096.88;5050820;28;20055;-84
2022/08/03 06:07:53;;;;;;;5.72;3.17;;;;;;;23.19;66.10;100082.50;5042483;28;20087;-82
2022/08/03 06:10:19;;;;;;;4.28;3.22;;;;;;;23.46;64.82;100083.63;5041960;28;20091;-81
2022/08/03 06:12:48;;;;;;;5.13;3.50;;;;;;;23.75;63.14;100089.88;5022672;28;20041;-82
2022/08/03 06:15:14;;;;;;;4.13;3.35;;;;;;;23.89;63.23;100097.22;5039516;28;20045;-82
2022/08/03 06:17:45;;;;;;;3.92;3.30;;;;;;;24.17;62.45;100094.94;5038208;28;20042;-82
2022/08/03 06:20:11;;;;;;;4.53;3.58;;;;;;;24.29;60.56;100101.28;5021337;28;20409;-82
2022/08/03 06:22:36;;;;;;;5.35;3.63;;;;;;;24.12;61.28;100092.91;5021946;28;20095;-83
2022/08/03 06:25:02;;;;;;;4.40;4.00;;;;;;;24.53;59.32;100093.53;5037122;28;20033;-82
2022/08/03 06:27:27;;;;;;;5.13;4.25;;;;;;;24.61;57.15;100102.22;5038399;28;20041;-82
2022/08/03 06:29:53;;;;;;;7.20;3.95;;;;;;;24.68;56.42;100110.13;5038504;28;20132;-82
2022/08/03 06:32:21;;;;;;;6.60;3.30;;;;;;;25.01;54.50;100106.13;5039646;28;20045;-81
2022/08/03 06:34:47;;;;;;;8.60;3.58;;;;;;;25.21;54.97;100114.13;5039699;28;20049;-82
2022/08/03 06:37:13;;;;;;;5.55;3.00;;;;;;;25.46;54.75;100111.97;5039009;28;20048;-83
2022/08/03 06:39:38;;;;;;;5.25;3.05;;;;;;;25.51;53.69;100120.41;5037846;28;20033;-82
2022/08/03 06:42:04;;;;;;;4.55;3.05;;;;;;;25.53;53.32;100119.88;5040419;28;20095;-81
2022/08/03 06:44:30;;;;;;;7.95;3.30;;;;;;;25.59;53.54;100116.97;5014190;28;20041;-81
2022/08/03 06:46:55;;;;;;;9.20;3.50;;;;;;;25.64;52.96;100119.72;5029627;28;20476;-82
2022/08/03 06:49:21;;;;;;;4.97;3.15;;;;;;;25.69;52.45;100109.56;5028563;28;20051;-82
2022/08/03 06:51:52;;;;;;;8.10;3.13;;;;;;;25.94;52.70;100120.28;5029932;28;20053;-81
2022/08/03 06:54:21;;;;;;;5.15;3.30;;;;;;;25.77;51.75;100116.94;5030049;28;20044;-82
2022/08/03 06:56:47;;;;;;;6.18;3.35;;;;;;;25.78;51.86;100118.47;5004855;28;20144;-80
2022/08/03 06:59:12;;;;;;;6.10;3.45;;;;;;;26.18;50.24;100119.34;5039980;28;20059;-83
2022/08/03 07:01:38;;;;;;;6.75;3.25;;;;;;;26.43;49.51;100119.97;5039280;28;20132;-81
2022/08/03 07:04:04;;;;;;;8.52;3.55;;;;;;;26.42;48.91;100113.50;5020949;28;20053;-82
2022/08/03 07:06:30;;;;;;;6.35;3.05;;;;;;;26.47;49.50;100131.78;5037691;28;20436;-83
2022/08/03 07:08:56;;;;;;;11.77;3.40;;;;;;;26.59;48.74;100124.56;5038790;28;20025;-80
2022/08/03 07:11:22;;;;;;;9.43;3.40;;;;;;;26.36;49.24;100121.41;5002361;28;20044;-82
2022/08/03 07:13:48;;;;;;;5.45;3.20;;;;;;;26.37;49.19;100124.97;5039231;28;20052;-82
2022/08/03 07:16:13;;;;;;;7.10;3.60;;;;;;;26.58;49.23;100120.19;5021886;28;20037;-83
2022/08/03 07:18:39;;;;;;;8.18;3.65;;;;;;;26.74;48.21;100121.94;5036382;28;20160;-83
2022/08/03 07:21:06;;;;;;;7.20;3.33;;;;;;;26.83;48.78;100129.28;5037558;28;20087;-83
2022/08/03 07:23:32;;;;;;;5.35;3.50;;;;;;;26.94;48.04;100119.75;5037665;28;20063;-83
2022/08/03 07:25:57;;;;;;;4.70;3.50;;;;;;;26.94;47.75;100128.31;5036273;28;20037;-83
2022/08/03 07:28:23;;;;;;;5.07;3.20;;;;;;;27.27;47.90;100125.53;5038913;28;20064;-83
2022/08/03 07:30:48;;;;;;;7.32;3.55;;;;;;;27.42;46.66;100124.94;5037401;28;20500;-82
2022/08/03 07:33:14;;;;;;;7.03;3.28;;;;;;;27.38;47.32;100121.66;5033916;28;20548;-83
2022/08/03 07:35:40;;;;;;;6.63;3.55;;;;;;;27.72;45.27;100122.44;5033109;28;20037;-83
2022/08/03 07:38:05;;;;;;;5.80;3.33;;;;;;;27.60;46.39;100120.41;5039369;28;20055;-83
2022/08/03 07:40:31;;;;;;;4.97;3.60;;;;;;;27.30;45.70;100124.41;5032757;28;20096;-83
2022/08/03 07:42:57;;;;;;;4.88;3.13;;;;;;;27.53;46.49;100127.56;5037281;28;20041;-83
2022/08/03 07:45:23;;;;;;;5.82;3.40;;;;;;;27.87;46.37;100123.91;5040455;28;20047;-83
2022/08/03 07:47:48;;;;;;;3.75;3.35;;;;;;;28.27;45.48;100114.59;5040289;28;20474;-84
2022/08/03 07:50:14;;;;;;;4.80;3.17;;;;;;;28.59;44.03;100117.09;5033483;28;20049;-83
2022/08/03 07:52:49;;;;;;;5.22;3.50;;;;;;;28.65;43.68;100112.00;5033157;28;20056;-83
2022/08/03 07:55:16;;;;;;;4.90;3.20;;;;;;;28.83;43.34;100107.41;5049922;28;20041;-83
2022/08/03 07:57:41;;;;;;;3.50;3.15;;;;;;;28.94;42.42;100123.44;5049862;28;20037;-83
2022/08/03 08:00:13;;;;;;;5.18;3.40;;;;;;;29.10;41.39;100119.31;5049229;28;20118;-83
2022/08/03 08:02:39;;;;;;;5.78;3.70;;;;;;;29.01;42.33;100120.63;5031738;28;20116;-83
2022/08/03 08:05:05;;;;;;;4.53;3.80;;;;;;;29.16;41.64;100119.91;5048964;28;20103;-83
2022/08/03 08:07:31;;;;;;;3.22;2.92;;;;;;;28.93;41.84;100122.66;5035750;28;20048;-83
2022/08/03 08:09:56;;;;;;;4.05;3.55;;;;;;;29.24;41.50;100123.56;5029841;28;20029;-83
2022/08/03 08:12:22;;;;;;;3.50;3.20;;;;;;;29.15;40.68;100121.25;5032851;28;20452;-83
2022/08/03 08:14:47;;;;;;;4.13;3.20;;;;;;;29.41;40.77;100121.00;5045234;28;20087;-82
2022/08/03 08:17:13;;;;;;;5.18;3.20;;;;;;;29.64;39.37;100121.81;5031846;28;20267;-82
2022/08/03 08:19:39;;;;;;;3.92;3.08;;;;;;;29.85;40.59;100115.16;5030510;28;20076;-83
2022/08/03 08:22:05;;;;;;;3.83;3.00;;;;;;;29.84;39.23;100125.09;5031393;28;20036;-82
2022/08/03 08:24:32;;;;;;;3.88;2.95;;;;;;;30.08;39.27;100121.72;5047460;28;20052;-81
2022/08/03 08:26:59;;;;;;;3.97;3.00;;;;;;;30.43;39.24;100122.84;5050790;28;20143;-82
2022/08/03 08:29:24;;;;;;;3.88;2.90;;;;;;;30.51;36.37;100127.25;5050887;28;20052;-82
2022/08/03 08:31:50;;;;;;;4.43;3.10;;;;;;;30.66;37.83;100119.97;5017446;28;20021;-82
2022/08/03 08:34:15;;;;;;;3.67;3.00;;;;;;;30.74;36.49;100120.72;5050845;28;20503;-82
2022/08/03 08:36:41;;;;;;;3.45;2.88;;;;;;;30.77;37.06;100120.34;5020093;28;20046;-82
2022/08/03 08:39:07;;;;;;;3.25;2.85;;;;;;;31.20;35.59;100116.41;5031058;28;20111;-82
2022/08/03 08:41:35;;;;;;;5.22;2.72;;;;;;;31.42;34.72;100109.78;5013726;28;20042;-82
2022/08/03 08:44:01;;;;;;;4.18;2.72;;;;;;;31.60;33.06;100118.50;5030760;28;20092;-81
2022/08/03 08:46:31;;;;;;;3.70;2.53;;;;;;;31.47;32.50;100120.28;5031980;28;20037;-82
2022/08/03 08:48:57;;;;;;;2.92;2.70;;;;;;;30.89;33.01;100114.97;5013218;28;20537;-82
2022/08/03 08:51:27;;;;;;;4.38;2.50;;;;;;;31.01;33.64;100116.09;5031307;28;20037;-82
2022/08/03 08:53:53;;;;;;;4.10;2.63;;;;;;;31.19;33.23;100102.63;5013592;28;20193;-82
2022/08/03 08:56:19;;;;;;;3.70;2.72;;;;;;;31.52;32.71;100109.94;5032692;28;20330;-82
2022/08/03 08:58:59;;;;;;;5.80;2.60;;;;;;;31.64;32.44;100107.41;5014725;28;20049;-83
2022/08/03 09:01:25;;;;;;;3.78;2.67;;;;;;;31.43;33.08;100108.44;5013346;28;20104;-83
2022/08/03 09:03:52;;;;;;;3.85;2.80;;;;;;;31.66;32.29;100107.59;5030992;28;20038;-83
2022/08/03 09:06:19;;;;;;;3.80;2.75;;;;;;;31.68;33.38;100111.38;5030727;28;20103;-82
2022/08/03 09:08:44;;;;;;;3.72;2.95;;;;;;;31.94;32.01;100112.94;5031167;28;20060;-82
2022/08/03 09:11:10;;;;;;;2.95;2.58;;;;;;;31.57;32.56;100108.22;5030824;28;20057;-82
2022/08/03 09:13:35;;;;;;;4.70;3.03;;;;;;;32.11;31.12;100107.25;5026485;28;20040;-82
2022/08/03 09:16:21;;;;;;;4.28;2.28;;;;;;;32.06;29.54;100090.28;5030535;28;20067;-82
2022/08/03 09:18:52;;;;;;;3.13;2.35;;;;;;;32.26;29.55;100112.13;5012574;28;20039;-81
2022/08/03 09:21:20;;;;;;;3.40;2.40;;;;;;;32.41;29.25;100109.13;5047123;28;20316;-81
2022/08/03 09:23:50;;;;;;;4.50;2.60;;;;;;;32.16;29.22;100100.53;5029451;28;20343;-81
2022/08/03 09:26:23;;;;;;;3.95;2.40;;;;;;;32.48;27.90;100107.50;5025617;28;20052;-82
2022/08/03 09:29:08;;;;;;;2.92;2.28;;;;;;;32.66;29.30;100104.09;5026857;28;20048;-82
2022/08/03 09:31:36;;;;;;;2.30;2.10;;;;;;;33.13;28.49;100100.13;5036366;28;20528;-82
2022/08/03 09:34:03;;;;;;;4.40;2.30;;;;;;;32.98;29.40;100108.91;5030289;28;20041;-83
2022/08/03 09:36:33;;;;;;;3.05;2.40;;;;;;;32.54;29.22;100087.94;5031798;28;20056;-83
2022/08/03 09:39:13;;;;;;;3.72;2.30;;;;;;;32.44;28.65;100099.31;5034607;28;20441;-82
2022/08/03 09:41:41;;;;;;;3.83;2.30;;;;;;;32.71;28.80;100102.34;5035812;28;20042;-82
2022/08/03 09:44:07;;;;;;;3.30;2.50;;;;;;;33.03;27.40;100105.03;5060757;28;20034;-82
2022/08/03 09:46:49;;;;;;;2.67;2.15;;;;;;;33.22;26.67;100096.56;5038050;28;20088;-82
2022/08/03 09:49:14;;;;;;;3.37;2.37;;;;;;;33.42;27.50;100094.56;5041034;28;20061;-82
2022/08/03 09:51:40;;;;;;;2.47;2.22;;;;;;;33.25;27.63;100086.75;5028963;28;20284;-82
2022/08/03 09:54:06;;;;;;;3.28;2.50;;;;;;;33.19;27.32;100100.63;5011979;28;20048;-82
2022/08/03 09:56:42;;;;;;;2.63;2.38;;;;;;;32.86;26.90;100090.66;5028677;28;20080;-82
2022/08/03 09:59:12;;;;;;;5.13;2.40;;;;;;;32.95;27.11;100092.09;5028439;28;20436;-82
2022/08/03 10:01:41;;;;;;;4.45;2.40;;;;;;;33.04;28.12;100097.91;5029756;28;20045;-82
2022/08/03 10:04:13;;;;;;;3.53;2.50;;;;;;;33.34;26.42;100073.03;5029752;28;20045;-82
2022/08/03 10:06:39;;;;;;;;;;;;;;;33.59;27.04;100073.63;5011527;28;20417;-82
2022/08/03 10:09:08;;;;;;;2.75;2.28;;;;;;;33.54;26.04;100077.53;5029075;28;19932;-82
2022/08/03 10:11:34;;;;;;;3.40;2.40;;;;;;;33.74;27.27;100084.94;5029108;28;20045;-82
2022/08/03 10:14:04;;;;;;;3.15;2.20;;;;;;;33.69;26.58;100072.34;5028724;28;20512;-82
2022/08/03 10:16:35;;;;;;;3.15;2.33;;;;;;;33.79;26.59;100083.91;5026826;28;20052;-82
2022/08/03 10:19:06;;;;;;;3.55;2.60;;;;;;;33.52;26.05;100068.75;5010826;28;20049;-82
2022/08/03 10:21:34;;;;;;;2.95;2.55;;;;;;;33.49;25.56;100070.69;5011468;28;20485;-82
2022/08/03 10:24:03;;;;;;;2.72;2.42;;;;;;;33.37;27.46;100068.97;5007790;28;20491;-82
2022/08/03 10:26:31;;;;;;;3.30;2.22;;;;;;;33.67;27.91;100068.53;5005170;28;20425;-82
2022/08/03 10:28:59;;;;;;;3.13;2.10;;;;;;;33.55;26.74;100058.94;5046159;28;20497;-82
2022/08/03 10:31:25;;;;;;;2.88;2.53;;;;;;;33.25;25.89;100051.50;5030372;28;20049;-82
2022/08/03 10:33:53;;;;;;;2.97;2.50;;;;;;;33.75;25.51;100057.69;5027502;28;20038;-82
2022/08/03 10:36:23;;;;;;;2.40;2.20;;;;;;;33.70;25.13;100055.84;5049830;28;20526;-82
2022/08/03 10:38:55;;;;;;;2.88;2.33;;;;;;;33.95;26.33;100053.50;5067765;28;20072;-82
2022/08/03 10:41:22;;;;;;;2.67;2.17;;;;;;;34.22;27.89;100049.81;5050721;28;20109;-82
2022/08/03 10:44:08;;;;;;;4.03;2.63;;;;;;;34.62;25.78;100038.47;5032821;28;20041;-82
2022/08/03 10:46:35;;;;;;;3.70;2.20;;;;;;;34.66;26.30;100038.81;5042788;28;20519;-81
2022/08/03 10:49:02;;;;;;;2.60;2.28;;;;;;;34.72;26.25;100041.41;5068689;28;20565;-82
2022/08/03 10:51:30;;;;;;;3.15;2.40;;;;;;;34.55;24.33;100033.63;5046427;28;20539;-82
2022/08/03 10:53:57;;;;;;;3.97;2.55;;;;;;;34.68;24.67;100047.63;5048346;28;20855;-82
2022/08/03 10:59:16;;;;;;;2.50;2.30;;;;;;;34.47;24.26;100045.31;5049223;28;20045;-81
2022/08/03 11:01:50;;;;;;;2.97;2.58;;;;;;;33.80;25.13;100036.50;5062195;28;20138;-81
2022/08/03 11:04:17;;;;;;;3.05;2.67;;;;;;;33.96;25.92;100037.78;5067362;28;20508;-81
2022/08/03 11:06:43;;;;;;;4.25;2.00;;;;;;;33.92;25.11;100037.47;5067910;28;20741;-82
2022/08/03 11:09:09;;;;;;;3.05;2.20;;;;;;;33.58;26.05;100043.34;5049449;28;20112;-82
2022/08/03 11:11:38;;;;;;;3.45;2.20;;;;;;;33.53;24.91;100042.25;5066444;28;20037;-82
2022/08/03 11:14:09;;;;;;;2.30;2.10;;;;;;;33.74;25.19;100038.91;5047066;28;20059;-81
2022/08/03 11:16:41;;;;;;;4.43;2.30;;;;;;;33.94;24.47;100028.97;5046219;28;20138;-80
2022/08/03 11:19:09;;;;;;;2.50;2.20;;;;;;;34.32;24.74;100036.19;5063945;28;20072;-81
2022/08/03 11:21:55;;;;;;;2.50;2.20;;;;;;;34.38;24.26;100033.78;5066017;28;20160;-82
2022/08/03 11:24:36;;;;;;;3.00;2.10;;;;;;;34.14;24.36;100038.41;5058812;22;20067;-86
2022/08/03 11:27:31;;;;;;;2.83;2.42;;;;;;;33.57;25.30;100027.44;5025260;28;20157;-84
2022/08/03 11:30:18;;;;;;;2.60;2.40;;;;;;;33.64;25.44;100038.88;5004662;28;20038;-86
2022/08/03 11:32:43;;;;;;;3.17;2.30;;;;;;;34.00;25.10;100015.06;5026363;28;20418;-85
2022/08/03 11:35:19;;;;;;;2.53;2.30;;;;;;;34.04;24.35;100024.00;5010204;28;20049;-85
2022/08/03 11:37:56;;;;;;;3.03;2.28;;;;;;;33.84;25.60;100025.31;4993897;28;20049;-84
2022/08/03 11:40:46;;;;;;;4.05;2.42;;;;;;;33.87;25.06;100018.34;5027051;28;20060;-84
2022/08/03 11:43:21;;;;;;;3.60;2.40;;;;;;;34.22;24.78;100027.53;5002104;28;20048;-85